Time;durP1;ratioP1;P1;durP2;ratioP2;P2;SDS_P1;SDS_P2;PMS_P1;PMS_P2;Temp;Humidity;BMP_temperature;BMP_pressure;BME280_temperature;BME280_humidity;BME280_pressure;Samples;Min_cycle;Max_cycle;Signal;HPM_P1;HPM_P2
2023/06/26 00:01:29;;;;;;;7.25;5.75;;;24.20;78.40;;;;;;5074244;28;20048;-40
2023/06/26 00:03:56;;;;;;;9.05;5.53;;;24.30;77.40;;;;;;5074921;28;20442;-39
2023/06/26 00:06:24;;;;;;;7.72;5.90;;;;;;;;;;5088989;28;20127;-36
2023/06/26 00:08:51;;;;;;;8.32;5.90;;;;;;;;;;5094197;28;20513;-34
2023/06/26 00:11:18;;;;;;;7.45;5.75;;;24.60;77.80;;;;;;5094387;28;20060;-39
2023/06/26 00:13:44;;;;;;;9.35;6.07;;;24.20;78.00;;;;;;5093901;28;20127;-39
2023/06/26 00:16:12;;;;;;;8.32;5.95;;;24.40;63.40;;;;;;5094064;28;20051;-36
2023/06/26 00:18:40;;;;;;;6.85;5.45;;;;;;;;;;5093967;28;20473;-36
2023/06/26 00:21:06;;;;;;;7.63;5.70;;;23.80;78.00;;;;;;5092221;28;20412;-37
2023/06/26 00:23:36;;;;;;;7.25;5.47;;;23.90;77.30;;;;;;5093960;28;20044;-39
2023/06/26 00:26:03;;;;;;;6.80;5.78;;;24.40;63.30;;;;;;5093867;28;20497;-37
2023/06/26 00:28:30;;;;;;;7.18;5.80;;;24.40;70.20;;;;;;5093968;28;20127;-39
2023/06/26 00:30:57;;;;;;;7.50;5.72;;;;;;;;;;5093519;28;20420;-37
2023/06/26 00:33:25;;;;;;;7.40;6.00;;;24.40;63.30;;;;;;5093487;28;20424;-36
2023/06/26 00:35:52;;;;;;;7.18;5.80;;;;;;;;;;5089939;28;20139;-35
2023/06/26 00:38:19;;;;;;;6.57;5.57;;;24.40;78.30;;;;;;5093761;28;20055;-37
2023/06/26 00:40:45;;;;;;;6.95;6.00;;;25.00;78.70;;;;;;5093712;28;20123;-38
2023/06/26 00:43:12;;;;;;;6.80;5.97;;;24.40;66.00;;;;;;5093281;28;20131;-37
2023/06/26 00:45:39;;;;;;;7.57;6.32;;;23.60;72.30;;;;;;5093540;28;20151;-40
2023/06/26 00:48:07;;;;;;;6.85;5.93;;;;;;;;;;5093596;28;20123;-37
2023/06/26 00:50:35;;;;;;;7.43;6.15;;;24.70;78.10;;;;;;5093643;28;20123;-37
2023/06/26 00:53:01;;;;;;;8.77;6.00;;;24.20;77.80;;;;;;5081859;28;20059;-40
2023/06/26 00:55:28;;;;;;;6.78;5.47;;;25.00;77.90;;;;;;5073255;28;20049;-36
2023/06/26 00:57:55;;;;;;;6.22;5.53;;;24.60;70.60;;;;;;5072982;28;20503;-37
2023/06/26 01:00:22;;;;;;;8.05;6.07;;;24.60;77.90;;;;;;5073217;28;20131;-37
2023/06/26 01:02:49;;;;;;;8.18;5.88;;;;;;;;;;5072964;28;20055;-37
2023/06/26 01:05:20;;;;;;;6.22;5.50;;;24.40;69.70;;;;;;5073164;28;20055;-33
2023/06/26 01:07:48;;;;;;;7.25;5.75;;;24.40;63.30;;;;;;5073004;28;20409;-34
2023/06/26 01:10:15;;;;;;;6.65;5.75;;;24.40;67.90;;;;;;5072832;28;20127;-34
2023/06/26 01:12:42;;;;;;;9.52;6.03;;;;;;;;;;5072445;28;20116;-35
2023/06/26 01:15:10;;;;;;;7.45;5.82;;;24.30;63.20;;;;;;5072977;28;20052;-34
2023/06/26 01:17:38;;;;;;;6.35;5.70;;;24.30;64.60;;;;;;5072918;28;20127;-31
2023/06/26 01:20:06;;;;;;;6.10;5.50;;;24.10;77.50;;;;;;5072647;28;20048;-32
2023/06/26 01:22:45;;;;;;;5.85;5.25;;;24.30;63.20;;;;;;5072369;28;20048;-35
2023/06/26 01:25:18;;;;;;;8.55;5.75;;;24.40;74.50;;;;;;5072571;28;20127;-32
2023/06/26 01:27:47;;;;;;;6.60;5.90;;;24.30;63.20;;;;;;5081479;28;20127;-37
2023/06/26 01:30:14;;;;;;;7.00;5.55;;;24.20;77.50;;;;;;5093017;28;20044;-33
2023/06/26 01:32:41;;;;;;;6.85;5.88;;;24.00;77.40;;;;;;5092098;28;20428;-32
2023/06/26 01:35:09;;;;;;;7.53;6.00;;;24.30;63.20;;;;;;5091898;28;20083;-36
2023/06/26 01:37:35;;;;;;;6.82;6.00;;;23.80;77.90;;;;;;5091863;28;20139;-32
2023/06/26 01:40:05;;;;;;;8.23;5.85;;;24.40;73.10;;;;;;5092748;28;20052;-34
2023/06/26 01:42:32;;;;;;;6.28;5.68;;;24.30;77.40;;;;;;5092469;28;20418;-33
2023/06/26 01:45:00;;;;;;;6.40;5.35;;;24.40;78.10;;;;;;5092554;28;20080;-33
2023/06/26 01:47:26;;;;;;;6.40;5.25;;;24.30;77.40;;;;;;5085144;28;20115;-32
2023/06/26 01:49:55;;;;;;;6.57;5.63;;;24.50;77.90;;;;;;5072053;28;20055;-32
2023/06/26 01:52:22;;;;;;;6.72;5.57;;;23.80;77.90;;;;;;5072191;28;20080;-32
2023/06/26 01:55:01;;;;;;;7.50;5.90;;;24.30;63.10;;;;;;5071932;28;20131;-32
2023/06/26 01:57:28;;;;;;;6.55;5.72;;;24.80;78.10;;;;;;5072165;28;20045;-32
2023/06/26 01:59:55;;;;;;;8.65;6.10;;;;;;;;;;5071854;28;20497;-34
2023/06/26 02:02:24;;;;;;;6.78;5.63;;;25.10;78.50;;;;;;5071834;28;20515;-32
2023/06/26 02:04:51;;;;;;;6.93;5.43;;;;;;;;;;5071743;28;20048;-37
2023/06/26 02:07:17;;;;;;;6.63;5.80;;;24.50;74.20;;;;;;5072156;28;20045;-32
2023/06/26 02:09:44;;;;;;;6.35;5.63;;;25.30;78.10;;;;;;5072080;28;20123;-32
2023/06/26 02:12:11;;;;;;;6.47;5.50;;;;;;;;;;5071688;28;20055;-37
2023/06/26 02:14:38;;;;;;;7.40;5.68;;;24.00;77.40;;;;;;5071895;28;20135;-32
2023/06/26 02:17:05;;;;;;;7.25;5.85;;;;;;;;;;5072837;28;20116;-37
2023/06/26 02:19:33;;;;;;;6.60;5.97;;;25.20;78.10;;;;;;5071964;28;20067;-35
2023/06/26 02:22:00;;;;;;;6.47;5.60;;;24.40;77.40;;;;;;5071852;28;20166;-33
2023/06/26 02:24:29;;;;;;;6.65;5.68;;;24.00;73.20;;;;;;5084286;28;20130;-32
2023/06/26 02:26:56;;;;;;;6.63;5.65;;;24.20;77.30;;;;;;5080134;28;20059;-32
2023/06/26 02:29:23;;;;;;;6.43;5.50;;;25.20;77.90;;;;;;5071675;28;20131;-32
2023/06/26 02:31:50;;;;;;;6.57;5.75;;;24.00;69.70;;;;;;5073478;28;20048;-34
2023/06/26 02:34:16;;;;;;;6.32;5.72;;;24.10;77.20;;;;;;5078652;28;20135;-32
2023/06/26 02:36:44;;;;;;;6.28;5.40;;;25.30;77.90;;;;;;5078523;28;20599;-32
2023/06/26 02:39:11;;;;;;;7.32;5.78;;;25.20;77.70;;;;;;5091759;28;20040;-32
2023/06/26 02:41:38;;;;;;;6.53;5.85;;;;;;;;;;5091814;28;20055;-32
2023/06/26 02:44:06;;;;;;;6.13;5.53;;;23.90;75.50;;;;;;5092252;28;20126;-32
2023/06/26 02:46:33;;;;;;;6.97;5.88;;;24.50;78.20;;;;;;5095866;28;20052;-33
2023/06/26 02:48:59;;;;;;;6.07;5.47;;;24.20;72.70;;;;;;5094891;28;20044;-32
2023/06/26 02:51:26;;;;;;;6.15;5.55;;;23.90;72.00;;;;;;5095956;28;20054;-32
2023/06/26 02:53:54;;;;;;;6.85;5.50;;;24.10;77.90;;;;;;5095505;28;20587;-32
2023/06/26 02:56:21;;;;;;;6.32;5.63;;;25.40;77.90;;;;;;5095785;28;20139;-32
2023/06/26 02:58:48;;;;;;;6.10;5.50;;;24.00;77.30;;;;;;5095620;28;20130;-32
2023/06/26 03:01:15;;;;;;;6.35;5.32;;;;;;;;;;5095750;28;20131;-34
2023/06/26 03:03:42;;;;;;;6.88;5.65;;;23.40;71.30;;;;;;5094132;28;20127;-32
2023/06/26 03:06:08;;;;;;;6.47;5.50;;;24.40;63.10;;;;;;5081282;28;20047;-34
2023/06/26 03:08:37;;;;;;;5.95;5.35;;;24.80;77.50;;;;;;5095634;28;20070;-32
2023/06/26 03:11:05;;;;;;;6.00;5.40;;;24.10;70.50;;;;;;5095292;28;20131;-32
2023/06/26 03:13:33;;;;;;;6.38;5.78;;;24.10;77.30;;;;;;5087380;28;20298;-32
2023/06/26 03:16:00;;;;;;;6.70;6.00;;;23.40;76.90;;;;;;5075266;28;20123;-32
2023/06/26 03:18:26;;;;;;;6.55;5.82;;;24.00;77.20;;;;;;5074892;28;20670;-33
2023/06/26 03:20:54;;;;;;;6.57;5.88;;;24.10;68.30;;;;;;5079540;28;20123;-33
2023/06/26 03:23:21;;;;;;;6.65;5.78;;;;;;;;;;5074546;28;20520;-36
2023/06/26 03:25:48;;;;;;;6.18;5.57;;;23.60;62.60;;;;;;5074980;28;20186;-31
2023/06/26 03:28:16;;;;;;;6.18;5.57;;;24.30;63.00;;;;;;5074705;28;20136;-35
2023/06/26 03:30:43;;;;;;;6.50;5.78;;;;;;;;;;5075048;28;20131;-36
2023/06/26 03:33:10;;;;;;;6.70;5.70;;;24.20;77.30;;;;;;5088112;28;20500;-33
2023/06/26 03:35:37;;;;;;;6.57;5.97;;;24.60;70.80;;;;;;5095089;28;20058;-32
2023/06/26 03:38:04;;;;;;;7.22;5.90;;;24.10;72.90;;;;;;5075630;28;20048;-32
2023/06/26 03:40:31;;;;;;;6.28;5.40;;;24.40;77.70;;;;;;5073315;28;20138;-31
2023/06/26 03:42:58;;;;;;;6.15;5.55;;;24.50;65.80;;;;;;5073296;28;20044;-33
2023/06/26 03:45:26;;;;;;;6.80;5.65;;;24.90;77.60;;;;;;5073505;28;20127;-32
2023/06/26 03:47:53;;;;;;;6.25;5.40;;;;;;;;;;5073456;28;20456;-32
2023/06/26 03:50:20;;;;;;;6.82;5.55;;;;;;;;;;5073330;28;20084;-32
2023/06/26 03:52:46;;;;;;;6.07;5.30;;;23.60;77.70;;;;;;5074203;28;20135;-32
2023/06/26 03:55:14;;;;;;;7.45;5.78;;;;;;;;;;5072699;28;20094;-33
2023/06/26 03:57:40;;;;;;;6.03;5.43;;;24.30;72.50;;;;;;5073315;28;20132;-32
2023/06/26 04:00:08;;;;;;;6.20;5.60;;;23.50;69.10;;;;;;5073289;28;20128;-32
2023/06/26 04:02:37;;;;;;;7.07;5.63;;;23.60;77.00;;;;;;5072865;28;20053;-33
2023/06/26 04:05:04;;;;;;;6.20;5.60;;;23.70;77.80;;;;;;5073004;28;20132;-32
2023/06/26 04:07:31;;;;;;;6.20;5.60;;;24.10;77.20;;;;;;5072932;28;20080;-32
2023/06/26 04:09:58;;;;;;;6.50;5.90;;;24.50;77.60;;;;;;5078814;28;20044;-33
2023/06/26 04:12:25;;;;;;;6.70;6.00;;;;;;;;;;5087353;28;20079;-34
2023/06/26 04:14:51;;;;;;;6.63;5.80;;;24.10;77.60;;;;;;5073013;28;20127;-32
2023/06/26 04:17:18;;;;;;;6.72;5.45;;;23.70;77.30;;;;;;5088338;28;20054;-33
2023/06/26 04:19:46;;;;;;;6.85;5.72;;;25.00;71.70;;;;;;5093047;28;20051;-32
2023/06/26 04:22:13;;;;;;;6.40;5.70;;;24.40;69.30;;;;;;5092774;28;20153;-33
2023/06/26 04:24:40;;;;;;;6.05;5.45;;;23.80;77.30;;;;;;5089307;28;20059;-32
2023/06/26 04:27:07;;;;;;;6.43;5.78;;;24.10;72.50;;;;;;5084144;28;20135;-33
2023/06/26 04:29:33;;;;;;;6.90;5.50;;;25.30;75.30;;;;;;5076479;28;20119;-32
2023/06/26 04:32:00;;;;;;;5.80;5.20;;;24.20;78.00;;;;;;5076712;28;20062;-32
2023/06/26 04:34:27;;;;;;;5.93;5.35;;;23.80;77.20;;;;;;5092746;28;20136;-34
2023/06/26 04:36:55;;;;;;;7.28;5.55;;;24.20;77.20;;;;;;5055794;28;1054715;-33
2023/06/26 04:39:22;;;;;;;6.15;5.53;;;24.10;75.70;;;;;;5093924;28;20052;-33
2023/06/26 04:41:48;;;;;;;6.97;5.85;;;24.30;78.20;;;;;;5079319;28;20145;-31
2023/06/26 04:44:16;;;;;;;6.20;5.60;;;;;;;;;;5073094;28;20475;-35
2023/06/26 04:46:42;;;;;;;6.70;6.00;;;24.60;77.80;;;;;;5073610;28;20140;-32
2023/06/26 04:49:09;;;;;;;6.10;5.50;;;;;;;;;;5073472;28;20124;-33
2023/06/26 04:51:40;;;;;;;7.38;6.13;;;24.50;78.10;;;;;;5073667;28;20048;-32
2023/06/26 04:54:08;;;;;;;6.97;5.80;;;24.20;77.50;;;;;;5073360;28;20080;-32
2023/06/26 04:56:35;;;;;;;6.07;5.47;;;24.30;78.20;;;;;;5074484;28;20131;-32
2023/06/26 04:59:02;;;;;;;6.53;5.57;;;;;;;;;;5083639;28;20128;-32
2023/06/26 05:01:29;;;;;;;7.38;5.93;;;24.20;78.00;;;;;;5093156;28;20135;-33
2023/06/26 05:03:56;;;;;;;6.45;5.85;;;;;;;;;;5091417;28;20075;-34
2023/06/26 05:06:23;;;;;;;6.50;5.68;;;24.00;77.30;;;;;;5092984;28;20055;-32
2023/06/26 05:08:50;;;;;;;6.63;5.82;;;24.50;77.40;;;;;;5093180;28;20131;-33
2023/06/26 05:11:18;;;;;;;7.50;5.80;;;24.30;74.50;;;;;;5090285;28;20549;-32
2023/06/26 05:13:45;;;;;;;7.13;5.68;;;24.30;75.30;;;;;;5078970;28;20048;-33
2023/06/26 05:16:11;;;;;;;6.65;5.90;;;24.90;77.80;;;;;;5077537;28;20459;-32
2023/06/26 05:18:38;;;;;;;6.53;5.93;;;24.10;77.40;;;;;;5072955;28;20048;-32
2023/06/26 05:21:05;;;;;;;6.60;5.60;;;23.80;70.00;;;;;;5072989;28;20048;-34
2023/06/26 05:23:33;;;;;;;6.22;5.57;;;24.30;63.10;;;;;;5072596;28;20056;-32
2023/06/26 05:26:00;;;;;;;6.63;5.93;;;24.10;77.30;;;;;;5072923;28;20131;-35
2023/06/26 05:28:30;;;;;;;6.22;5.63;;;24.30;63.10;;;;;;5073199;28;20584;-34
2023/06/26 05:30:58;;;;;;;6.72;5.72;;;24.70;75.40;;;;;;5072646;28;20052;-32
2023/06/26 05:33:25;;;;;;;6.88;6.18;;;24.20;77.40;;;;;;5088210;28;20126;-32
2023/06/26 05:35:52;;;;;;;6.47;5.80;;;24.00;77.30;;;;;;5092209;28;20058;-32
2023/06/26 05:38:19;;;;;;;7.57;5.55;;;24.30;63.10;;;;;;5092857;28;20127;-35
2023/06/26 05:40:47;;;;;;;9.05;5.57;;;23.70;77.10;;;;;;5092591;28;20515;-33
2023/06/26 05:43:14;;;;;;;6.03;5.43;;;24.10;66.80;;;;;;5092364;28;20475;-36
2023/06/26 05:45:42;;;;;;;6.07;5.47;;;24.80;77.70;;;;;;5088135;28;20048;-32
2023/06/26 05:48:09;;;;;;;7.15;5.57;;;;;;;;;;5091440;28;20107;-37
2023/06/26 05:50:37;;;;;;;7.47;6.30;;;24.20;63.10;;;;;;5091302;28;20476;-33
2023/06/26 05:53:05;;;;;;;7.72;5.57;;;24.20;63.10;;;;;;5092139;28;20058;-36
2023/06/26 05:55:32;;;;;;;6.45;5.53;;;24.30;66.70;;;;;;5092316;28;20503;-34
2023/06/26 05:57:59;;;;;;;6.35;5.05;;;24.10;77.70;;;;;;5092235;28;20131;-33
2023/06/26 06:00:27;;;;;;;6.40;5.00;;;24.20;63.20;;;;;;5090605;28;20047;-33
2023/06/26 06:02:55;;;;;;;6.32;5.28;;;24.10;72.90;;;;;;5092156;28;20130;-33
2023/06/26 06:05:22;;;;;;;7.47;5.85;;;23.90;71.10;;;;;;5092206;28;20074;-35
2023/06/26 06:07:49;;;;;;;7.25;5.50;;;24.30;77.90;;;;;;5086089;28;20048;-32
2023/06/26 06:10:16;;;;;;;8.25;5.15;;;;;;;;;;5079092;28;20045;-35
2023/06/26 06:12:43;;;;;;;6.03;5.43;;;24.70;78.50;;;;;;5071558;28;20056;-33
2023/06/26 06:15:10;;;;;;;8.18;5.53;;;24.60;78.40;;;;;;5071918;28;20128;-32
2023/06/26 06:17:37;;;;;;;6.80;5.32;;;;;;;;;;5077946;28;20044;-32
2023/06/26 06:20:06;;;;;;;8.43;5.20;;;24.70;78.50;;;;;;5071765;28;20044;-32
2023/06/26 06:22:33;;;;;;;6.75;5.07;;;24.50;74.60;;;;;;5071441;28;20463;-32
2023/06/26 06:25:00;;;;;;;7.78;5.32;;;24.30;78.10;;;;;;5071711;28;20054;-32
2023/06/26 06:27:27;;;;;;;8.60;5.18;;;24.20;72.10;;;;;;5071844;28;20049;-33
2023/06/26 06:29:54;;;;;;;6.80;5.05;;;24.10;77.80;;;;;;5071947;28;20123;-32
2023/06/26 06:32:21;;;;;;;8.05;4.82;;;;;;;;;;5078349;28;20124;-34
2023/06/26 06:34:48;;;;;;;6.72;4.97;;;23.70;77.80;;;;;;5091918;28;20131;-32
2023/06/26 06:37:16;;;;;;;6.13;5.07;;;24.20;63.30;;;;;;5078351;28;20444;-35
2023/06/26 06:39:43;;;;;;;6.60;4.93;;;24.10;70.10;;;;;;5071368;28;20051;-33
2023/06/26 06:42:10;;;;;;;6.57;5.00;;;24.10;75.80;;;;;;5071315;28;20128;-33
2023/06/26 06:44:36;;;;;;;6.03;4.65;;;23.90;77.80;;;;;;5073269;28;20048;-32
2023/06/26 06:47:04;;;;;;;6.53;4.38;;;24.20;63.90;;;;;;5091964;28;20066;-35
2023/06/26 06:49:30;;;;;;;7.22;4.97;;;23.80;77.70;;;;;;5091714;28;20127;-32
2023/06/26 06:51:57;;;;;;;8.00;4.70;;;24.00;77.60;;;;;;5084351;28;20078;-33
2023/06/26 06:54:26;;;;;;;7.35;4.85;;;24.20;63.10;;;;;;5081534;28;20071;-35
2023/06/26 06:56:53;;;;;;;6.20;4.53;;;24.10;77.40;;;;;;5082349;28;20119;-32
2023/06/26 06:59:20;;;;;;;8.60;4.93;;;24.40;74.40;;;;;;5077467;28;20412;-32
2023/06/26 07:01:46;;;;;;;6.18;4.50;;;24.90;78.00;;;;;;5078470;28;20132;-33
2023/06/26 07:04:13;;;;;;;6.15;4.40;;;24.60;77.70;;;;;;5081967;28;20655;-33
2023/06/26 07:06:40;;;;;;;6.85;4.57;;;24.70;68.90;;;;;;5083443;28;20048;-34
2023/06/26 07:09:07;;;;;;;7.25;5.07;;;24.20;77.80;;;;;;5071472;28;20412;-33
2023/06/26 07:11:35;;;;;;;5.28;4.22;;;23.90;77.30;;;;;;5070838;28;20441;-31
2023/06/26 07:14:01;;;;;;;5.82;4.18;;;24.20;77.40;;;;;;5070902;28;20059;-31
2023/06/26 07:16:28;;;;;;;6.18;4.18;;;;;;;;;;5071126;28;20494;-34
2023/06/26 07:18:55;;;;;;;5.50;4.28;;;24.30;77.90;;;;;;5071360;28;20052;-31
2023/06/26 07:21:22;;;;;;;5.03;4.32;;;23.90;77.10;;;;;;5070469;28;20139;-32
2023/06/26 07:23:48;;;;;;;5.70;4.40;;;25.10;70.80;;;;;;5070213;28;20489;-34
2023/06/26 07:26:15;;;;;;;4.95;4.28;;;24.10;77.50;;;;;;5071232;28;20462;-32
2023/06/26 07:28:43;;;;;;;6.05;4.25;;;23.90;77.20;;;;;;5070663;28;20157;-32
2023/06/26 07:31:10;;;;;;;6.18;4.20;;;23.70;77.60;;;;;;5072926;28;20428;-32
2023/06/26 07:33:37;;;;;;;6.70;4.00;;;25.20;70.00;;;;;;5091760;28;20071;-32
2023/06/26 07:36:04;;;;;;;6.63;4.25;;;23.50;76.80;;;;;;5094340;28;20047;-32
2023/06/26 07:38:31;;;;;;;6.95;3.72;;;;;;;;;;5093568;28;20044;-32
2023/06/26 07:40:58;;;;;;;4.88;3.85;;;;;;;;;;5093140;28;20131;-33
2023/06/26 07:43:25;;;;;;;6.38;3.63;;;;;;;;;;5081588;28;20131;-34
2023/06/26 07:45:54;;;;;;;4.72;3.90;;;24.20;62.60;;;;;;5083891;28;20070;-32
2023/06/26 07:48:20;;;;;;;6.20;3.55;;;23.80;77.70;;;;;;5094699;28;20439;-31
2023/06/26 07:50:48;;;;;;;7.05;3.47;;;;;;;;;;5093347;28;20488;-35
2023/06/26 07:53:14;;;;;;;6.07;3.80;;;24.30;77.10;;;;;;5093615;28;20373;-32
2023/06/26 07:55:41;;;;;;;6.13;3.58;;;24.20;77.40;;;;;;5094859;28;20135;-31
2023/06/26 07:58:08;;;;;;;5.50;3.47;;;24.20;73.60;;;;;;5094615;28;20507;-31
2023/06/26 08:00:35;;;;;;;6.20;3.50;;;23.80;77.20;;;;;;5094509;28;20127;-31
2023/06/26 08:03:03;;;;;;;6.60;3.80;;;24.30;63.00;;;;;;5094148;28;20051;-35
2023/06/26 08:05:30;;;;;;;6.07;3.15;;;;;;;;;;5094881;28;20416;-36
2023/06/26 08:07:57;;;;;;;7.35;3.65;;;25.20;76.70;;;;;;5094769;28;20130;-31
2023/06/26 08:10:24;;;;;;;5.63;3.40;;;;;;;;;;5094428;28;20123;-35
2023/06/26 08:12:52;;;;;;;4.18;3.30;;;23.50;76.40;;;;;;5094579;28;20135;-32
2023/06/26 08:15:19;;;;;;;6.13;3.60;;;24.90;77.30;;;;;;5094297;28;20044;-31
2023/06/26 08:17:46;;;;;;;5.22;3.33;;;;;;;;;;5094352;28;20127;-31
2023/06/26 08:20:14;;;;;;;4.80;3.50;;;24.30;76.60;;;;;;5094459;28;20237;-31
2023/06/26 08:22:41;;;;;;;5.45;3.15;;;24.50;76.80;;;;;;5094160;28;20131;-31
2023/06/26 08:25:08;;;;;;;4.70;3.25;;;24.40;76.60;;;;;;5093970;28;20523;-31
2023/06/26 08:27:35;;;;;;;7.63;3.40;;;23.80;76.20;;;;;;5094440;28;20131;-32
2023/06/26 08:30:01;;;;;;;5.55;3.22;;;24.00;76.60;;;;;;5092398;28;20048;-31
2023/06/26 08:32:28;;;;;;;4.57;3.00;;;;;;;;;;5084169;28;20124;-35
2023/06/26 08:34:55;;;;;;;4.07;2.92;;;24.10;76.30;;;;;;5082418;28;20044;-31
2023/06/26 08:37:23;;;;;;;4.88;3.28;;;25.00;76.60;;;;;;5081899;28;20390;-31
2023/06/26 08:39:50;;;;;;;4.65;2.78;;;;;;;;;;5074966;28;20047;-34
2023/06/26 08:42:17;;;;;;;3.67;2.70;;;24.60;68.50;;;;;;5072315;28;20048;-32
2023/06/26 08:44:44;;;;;;;4.57;2.83;;;25.40;76.80;;;;;;5081061;28;20470;-39
2023/06/26 08:47:11;;;;;;;4.30;2.75;;;23.70;76.00;;;;;;5093640;28;20044;-37
2023/06/26 08:49:43;;;;;;;4.00;2.80;;;24.70;76.10;;;;;;5093585;28;20457;-39
2023/06/26 08:52:14;;;;;;;5.05;2.90;;;24.70;62.00;;;;;;5093513;28;20074;-31
2023/06/26 08:54:47;;;;;;;4.15;2.65;;;24.50;76.70;;;;;;5093511;28;20046;-40
2023/06/26 08:57:15;;;;;;;3.08;2.45;;;25.40;76.80;;;;;;5093104;28;20048;-38
2023/06/26 08:59:41;;;;;;;3.90;2.53;;;24.00;67.10;;;;;;5093681;28;20135;-37
2023/06/26 09:02:08;;;;;;;3.40;2.55;;;;;;;;;;5087380;28;20147;-36
2023/06/26 09:04:35;;;;;;;5.05;2.60;;;24.80;61.70;;;;;;5082229;28;20128;-34
2023/06/26 09:07:02;;;;;;;4.47;2.55;;;24.40;75.60;;;;;;5073078;28;20132;-38
2023/06/26 09:09:29;;;;;;;5.57;2.70;;;;;;;;;;5074269;28;20127;-36
2023/06/26 09:11:57;;;;;;;4.15;2.58;;;26.00;76.50;;;;;;5073177;28;20584;-36
2023/06/26 09:14:24;;;;;;;4.57;2.47;;;24.60;75.60;;;;;;5072875;28;20052;-37
2023/06/26 09:16:51;;;;;;;3.38;2.17;;;24.80;75.50;;;;;;5093283;28;20074;-39
2023/06/26 09:19:18;;;;;;;4.82;2.70;;;;;;;;;;5093303;28;20131;-36
2023/06/26 09:21:45;;;;;;;2.83;1.85;;;24.80;75.40;;;;;;5093414;28;20076;-39
2023/06/26 09:24:12;;;;;;;3.83;2.10;;;24.60;75.20;;;;;;5086580;28;20075;-38
2023/06/26 09:26:39;;;;;;;5.75;2.30;;;23.90;73.50;;;;;;5092681;28;20097;-39
2023/06/26 09:29:07;;;;;;;3.38;2.17;;;25.00;61.10;;;;;;5091402;28;20047;-35
2023/06/26 09:31:36;;;;;;;4.35;2.30;;;;;;;;;;5086888;28;20131;-35
2023/06/26 09:34:03;;;;;;;4.00;2.20;;;;;;;;;;5090858;28;20125;-38
2023/06/26 09:36:32;;;;;;;5.13;2.10;;;26.00;64.30;;;;;;5091150;28;20070;-39
2023/06/26 09:39:00;;;;;;;4.65;2.50;;;25.00;73.10;;;;;;5081314;28;20515;-38
2023/06/26 09:41:27;;;;;;;2.90;1.98;;;26.00;65.10;;;;;;5073983;28;20044;-36
2023/06/26 09:43:53;;;;;;;3.90;2.20;;;25.50;76.50;;;;;;5081142;28;20249;-36
2023/06/26 09:46:27;;;;;;;5.68;2.20;;;26.00;76.00;;;;;;5082949;28;20131;-39
2023/06/26 09:48:59;;;;;;;4.72;2.30;;;24.90;63.50;;;;;;5083898;28;20135;-37
2023/06/26 09:51:26;;;;;;;4.03;2.20;;;24.90;74.70;;;;;;5081303;28;20054;-38
2023/06/26 09:53:53;;;;;;;2.40;1.83;;;24.90;69.50;;;;;;5074870;28;20054;-40
2023/06/26 09:56:21;;;;;;;3.95;2.20;;;25.10;75.40;;;;;;5084310;28;20046;-39
2023/06/26 09:58:48;;;;;;;2.30;1.90;;;25.20;76.20;;;;;;5080017;28;20118;-36
2023/06/26 10:01:15;;;;;;;3.00;1.90;;;;;;;;;;5082544;28;20046;-34
2023/06/26 10:03:43;;;;;;;3.05;2.20;;;25.30;75.70;;;;;;5081527;28;20549;-36
2023/06/26 10:06:10;;;;;;;3.38;2.20;;;25.50;67.30;;;;;;5080817;28;20055;-37
2023/06/26 10:08:37;;;;;;;2.78;1.77;;;24.60;75.30;;;;;;5082392;28;20718;-40
2023/06/26 10:11:04;;;;;;;2.65;1.80;;;25.20;75.20;;;;;;5087496;28;20105;-36
2023/06/26 10:13:32;;;;;;;2.85;1.88;;;24.40;74.80;;;;;;5092138;28;20405;-36
2023/06/26 10:15:59;;;;;;;3.38;2.00;;;25.30;75.30;;;;;;5089536;28;20108;-40
2023/06/26 10:18:26;;;;;;;3.22;1.88;;;;;;;;;;5089434;28;20389;-37
2023/06/26 10:20:55;;;;;;;4.95;2.40;;;25.00;60.80;;;;;;5091569;28;20401;-39
2023/06/26 10:23:22;;;;;;;2.65;2.05;;;24.60;75.60;;;;;;5091791;28;20130;-36
2023/06/26 10:25:49;;;;;;;4.68;2.10;;;25.40;73.00;;;;;;5091566;28;20408;-38
2023/06/26 10:28:16;;;;;;;3.67;1.90;;;25.20;62.90;;;;;;5085462;28;20123;-38
2023/06/26 10:30:43;;;;;;;2.58;1.80;;;25.40;75.20;;;;;;5071856;28;20553;-39
2023/06/26 10:33:10;;;;;;;4.05;1.98;;;24.80;75.30;;;;;;5085132;28;20298;-38
2023/06/26 10:35:43;;;;;;;2.85;1.80;;;25.00;61.00;;;;;;5092125;28;20133;-36
2023/06/26 10:38:11;;;;;;;3.10;2.03;;;25.00;75.30;;;;;;5091413;28;20576;-37
2023/06/26 10:40:41;;;;;;;3.25;1.70;;;25.30;75.60;;;;;;5091953;28;20127;-39
2023/06/26 10:43:08;;;;;;;5.28;2.05;;;24.70;75.80;;;;;;5089848;28;20123;-40
2023/06/26 10:45:36;;;;;;;2.90;1.90;;;25.10;75.70;;;;;;5074317;28;20044;-40
2023/06/26 10:48:04;;;;;;;2.40;1.83;;;;;;;;;;5071763;28;20048;-36
2023/06/26 10:50:31;;;;;;;2.42;1.65;;;;;;;;;;5090970;28;20097;-35
2023/06/26 10:53:18;;;;;;;2.33;1.90;;;25.30;75.60;;;;;;5091720;28;20052;-32
2023/06/26 10:55:49;;;;;;;2.08;1.63;;;25.30;67.20;;;;;;5089987;28;20055;-33
2023/06/26 10:58:31;;;;;;;3.92;2.22;;;24.90;63.90;;;;;;5089735;28;20052;-32
2023/06/26 11:01:23;;;;;;;2.60;1.77;;;25.10;75.60;;;;;;5070786;28;20048;-32
2023/06/26 11:04:02;;;;;;;4.43;1.65;;;24.80;74.60;;;;;;5071762;28;20127;-32
2023/06/26 11:06:29;;;;;;;2.70;1.70;;;;;;;;;;5076843;28;20054;-36
2023/06/26 11:09:01;;;;;;;2.55;1.80;;;24.40;71.80;;;;;;5075548;28;20211;-33
2023/06/26 11:12:05;;;;;;;2.47;1.60;;;25.30;74.70;;;;;;5082888;28;20469;-32
2023/06/26 11:14:32;;;;;;;2.33;1.52;;;25.50;71.00;;;;;;5074804;28;20131;-33
2023/06/26 11:16:59;;;;;;;2.92;1.80;;;;;;;;;;5074921;28;20074;-35
2023/06/26 11:19:27;;;;;;;2.35;1.80;;;25.00;75.10;;;;;;5075131;28;20124;-32
2023/06/26 11:21:58;;;;;;;2.78;1.70;;;25.20;74.70;;;;;;5074973;28;20051;-32
2023/06/26 11:24:26;;;;;;;1.85;1.48;;;25.20;60.50;;;;;;5081510;28;20131;-32
2023/06/26 11:26:53;;;;;;;2.65;1.65;;;24.20;74.20;;;;;;5073982;28;20119;-32
2023/06/26 11:29:20;;;;;;;2.15;1.67;;;;;;;;;;5074545;28;20405;-33
2023/06/26 11:31:47;;;;;;;3.53;2.17;;;25.80;72.90;;;;;;5076627;28;20048;-33
2023/06/26 11:34:15;;;;;;;4.05;1.80;;;25.00;74.90;;;;;;5077212;28;20050;-32
2023/06/26 11:36:45;;;;;;;2.40;1.60;;;25.00;74.40;;;;;;5084169;28;20083;-32
2023/06/26 11:39:12;;;;;;;2.85;1.60;;;;;;;;;;5090145;28;20051;-35
2023/06/26 11:41:40;;;;;;;4.10;1.70;;;25.50;74.90;;;;;;5073873;28;20124;-32
2023/06/26 11:44:09;;;;;;;4.35;1.60;;;24.30;74.20;;;;;;5073756;28;20131;-41
2023/06/26 11:46:35;;;;;;;2.30;1.60;;;25.40;74.90;;;;;;5083260;28;20142;-41
2023/06/26 11:49:04;;;;;;;2.10;1.60;;;25.20;60.60;;;;;;5083534;28;20045;-35
2023/06/26 11:51:31;;;;;;;3.30;1.60;;;;;;;;;;5083633;28;20036;-37
2023/06/26 11:53:58;;;;;;;3.15;1.77;;;26.30;75.70;;;;;;5079885;28;20048;-40
2023/06/26 11:56:26;;;;;;;3.25;1.80;;;;;;;;;;5077285;28;20048;-38
2023/06/26 11:59:02;;;;;;;2.40;1.80;;;24.50;74.20;;;;;;5074178;28;20052;-40
2023/06/26 12:01:31;;;;;;;3.15;1.88;;;25.30;60.60;;;;;;5074411;28;20048;-36
2023/06/26 12:04:00;;;;;;;2.75;1.70;;;25.00;74.50;;;;;;5074205;28;20044;-38
2023/06/26 12:06:27;;;;;;;2.53;1.63;;;25.90;61.70;;;;;;5074263;28;20048;-36
2023/06/26 12:08:54;;;;;;;2.70;1.50;;;25.30;74.50;;;;;;5076827;28;20079;-36
2023/06/26 12:11:21;;;;;;;3.53;1.67;;;;;;;;;;5086609;28;20501;-33
2023/06/26 12:13:48;;;;;;;1.60;1.45;;;26.50;75.10;;;;;;5074005;28;20076;-38
2023/06/26 12:16:16;;;;;;;4.72;1.77;;;25.50;74.80;;;;;;5088584;28;20062;-37
2023/06/26 12:18:43;;;;;;;3.63;1.70;;;;;;;;;;5094364;28;20134;-37
2023/06/26 12:21:25;;;;;;;4.38;1.80;;;25.30;74.80;;;;;;5094045;28;20106;-40
2023/06/26 12:23:59;;;;;;;2.92;1.70;;;24.40;72.10;;;;;;5094160;28;20135;-37
2023/06/26 12:26:26;;;;;;;3.97;1.77;;;25.40;62.30;;;;;;5094175;28;20054;-34
2023/06/26 12:28:53;;;;;;;2.90;1.70;;;25.10;74.20;;;;;;5075375;28;20052;-32
2023/06/26 12:31:22;;;;;;;2.55;1.60;;;25.90;60.90;;;;;;5073766;28;20127;-34
2023/06/26 12:33:49;;;;;;;2.25;1.50;;;25.20;74.50;;;;;;5092625;28;20054;-32
2023/06/26 12:36:16;;;;;;;2.33;1.55;;;25.30;64.10;;;;;;5093166;28;20044;-35
2023/06/26 12:38:43;;;;;;;4.30;1.63;;;24.90;75.10;;;;;;5093955;28;20127;-32
2023/06/26 12:41:13;;;;;;;2.15;1.52;;;25.10;74.40;;;;;;5093810;28;20126;-31
2023/06/26 12:43:40;;;;;;;2.13;1.58;;;;;;;;;;5093542;28;20052;-34
2023/06/26 12:46:07;;;;;;;2.88;1.60;;;26.00;75.00;;;;;;5086081;28;20122;-31
2023/06/26 12:48:43;;;;;;;3.45;1.75;;;25.20;60.50;;;;;;5073155;28;20141;-35
2023/06/26 12:51:10;;;;;;;2.03;1.50;;;25.80;75.00;;;;;;5073664;28;20132;-31
2023/06/26 12:53:39;;;;;;;2.40;1.63;;;24.90;75.00;;;;;;5073023;28;20150;-33
2023/06/26 12:56:06;;;;;;;2.15;1.58;;;24.60;75.10;;;;;;5073353;28;20101;-31
2023/06/26 12:58:33;;;;;;;3.95;1.65;;;;;;;;;;5075377;28;20175;-37
2023/06/26 13:00:59;;;;;;;2.90;1.60;;;26.30;75.30;;;;;;5093574;28;20127;-31
2023/06/26 13:03:26;;;;;;;2.45;1.70;;;;;;;;;;5092889;28;20485;-31
2023/06/26 13:05:54;;;;;;;2.88;1.70;;;24.80;75.10;;;;;;5093373;28;20465;-31
2023/06/26 13:08:21;;;;;;;3.60;1.60;;;24.90;73.80;;;;;;5093282;28;20131;-31